createdAt,value
2018-07-31T00:00:12.141Z,23.42
2018-07-31T00:01:12.163Z,23.44
2018-07-31T00:02:12.191Z,23.47
2018-07-31T00:03:12.215Z,23.28
2018-07-31T00:04:12.242Z,23.36
2018-07-31T00:05:12.268Z,23.37
2018-07-31T00:06:12.293Z,23.36
2018-07-31T00:07:12.319Z,23.29
2018-07-31T00:08:12.345Z,23.34
2018-07-31T00:09:12.372Z,23.33
2018-07-31T00:10:12.400Z,23.36
2018-07-31T00:11:12.424Z,23.39
2018-07-31T00:12:12.451Z,23.26
2018-07-31T00:13:12.475Z,23.26
2018-07-31T00:14:12.503Z,23.32
2018-07-31T00:15:12.515Z,23.25
2018-07-31T00:16:12.542Z,23.18
2018-07-31T00:17:12.568Z,23.23
2018-07-31T00:18:12.592Z,23.18
2018-07-31T00:19:12.618Z,23.33
2018-07-31T00:20:12.647Z,23.25
2018-07-31T00:21:12.672Z,23.20
2018-07-31T00:22:12.697Z,23.18
2018-07-31T00:23:12.725Z,23.21
2018-07-31T00:24:12.749Z,23.21
2018-07-31T00:25:12.776Z,23.18
2018-07-31T00:26:12.800Z,23.16
2018-07-31T00:27:12.830Z,23.20
2018-07-31T00:28:12.853Z,23.14
2018-07-31T00:29:12.879Z,23.16
2018-07-31T00:30:12.905Z,23.10
2018-07-31T00:31:12.930Z,23.07
2018-07-31T00:32:12.957Z,23.11
2018-07-31T00:33:12.982Z,23.02
2018-07-31T00:34:13.009Z,23.01
2018-07-31T00:35:13.035Z,22.99
2018-07-31T00:36:13.062Z,22.99
2018-07-31T00:37:13.086Z,23.11
2018-07-31T00:38:13.115Z,22.96
2018-07-31T00:39:13.138Z,22.96
2018-07-31T00:40:13.164Z,22.95
2018-07-31T00:41:13.190Z,22.96
2018-07-31T00:42:13.216Z,22.99
2018-07-31T00:43:13.231Z,23.01
2018-07-31T00:44:13.256Z,22.93
2018-07-31T00:45:13.282Z,22.86
2018-07-31T00:46:13.310Z,22.91
2018-07-31T00:47:13.332Z,22.93
2018-07-31T00:48:13.359Z,22.86
2018-07-31T00:49:13.385Z,22.92
2018-07-31T00:50:13.410Z,22.89
2018-07-31T00:51:13.436Z,22.83
2018-07-31T00:52:13.475Z,22.89
2018-07-31T00:53:13.488Z,22.77
2018-07-31T00:54:13.515Z,22.78
2018-07-31T00:55:13.540Z,22.76
2018-07-31T00:56:13.566Z,22.80
2018-07-31T00:57:13.595Z,22.83
2018-07-31T00:58:13.619Z,22.78
2018-07-31T00:59:13.643Z,22.77
2018-07-31T01:00:13.669Z,22.76
2018-07-31T01:01:13.695Z,22.74
2018-07-31T01:02:13.722Z,22.78
2018-07-31T01:03:13.753Z,22.68
2018-07-31T01:04:13.773Z,22.70
2018-07-31T01:05:13.799Z,22.70
2018-07-31T01:06:13.814Z,22.67
2018-07-31T01:07:13.840Z,22.65
2018-07-31T01:08:13.866Z,22.58
2018-07-31T01:09:13.891Z,22.58
2018-07-31T01:10:13.916Z,22.61
2018-07-31T01:11:13.944Z,22.61
2018-07-31T01:12:13.969Z,22.59
2018-07-31T01:13:13.995Z,22.59
2018-07-31T01:14:14.021Z,22.56
2018-07-31T01:15:14.047Z,22.55
2018-07-31T01:16:14.073Z,22.56
2018-07-31T01:17:14.098Z,22.56
2018-07-31T01:18:14.125Z,22.47
2018-07-31T01:19:14.151Z,22.49
2018-07-31T01:20:14.179Z,22.51
2018-07-31T01:21:14.203Z,22.51
2018-07-31T01:22:14.230Z,22.44
2018-07-31T01:23:14.255Z,22.43
2018-07-31T01:24:14.268Z,22.43
2018-07-31T01:25:14.294Z,22.37
2018-07-31T01:26:14.319Z,22.43
2018-07-31T01:27:14.345Z,22.37
2018-07-31T01:28:14.383Z,22.36
2018-07-31T01:29:14.397Z,22.34
2018-07-31T01:30:14.422Z,22.30
2018-07-31T01:31:14.448Z,22.34
2018-07-31T01:32:14.474Z,22.34
2018-07-31T01:33:14.500Z,22.21
2018-07-31T01:34:14.541Z,22.34
2018-07-31T01:35:14.552Z,22.26
2018-07-31T01:36:14.578Z,22.19
2018-07-31T01:37:14.605Z,22.23
2018-07-31T01:38:14.630Z,22.23
2018-07-31T01:39:14.645Z,22.22
2018-07-31T01:40:14.672Z,22.16
2018-07-31T01:41:14.696Z,22.15
2018-07-31T01:42:14.734Z,22.08
2018-07-31T01:43:14.749Z,22.07
2018-07-31T01:44:14.774Z,22.06
2018-07-31T01:45:14.800Z,22.04
2018-07-31T01:46:14.831Z,22.10
2018-07-31T01:47:14.852Z,22.07
2018-07-31T01:48:14.878Z,22.07
2018-07-31T01:49:14.904Z,22.12
2018-07-31T01:50:14.930Z,22.04
2018-07-31T01:51:14.960Z,22.06
2018-07-31T01:52:14.971Z,22.07
2018-07-31T01:53:14.995Z,22.06
2018-07-31T01:54:15.021Z,22.04
2018-07-31T01:55:15.047Z,22.06
2018-07-31T01:56:15.072Z,21.99
2018-07-31T01:57:15.101Z,21.96
2018-07-31T01:58:15.124Z,21.92
2018-07-31T01:59:15.150Z,22.00
2018-07-31T02:00:15.176Z,21.85
2018-07-31T02:01:15.202Z,21.89
2018-07-31T02:02:15.228Z,21.88
2018-07-31T02:03:15.253Z,21.88
2018-07-31T02:04:15.279Z,21.88
2018-07-31T02:05:15.295Z,21.85
2018-07-31T02:06:15.324Z,21.80
2018-07-31T02:07:15.346Z,21.85
2018-07-31T02:08:15.372Z,21.80
2018-07-31T02:09:15.398Z,21.80
2018-07-31T02:10:15.423Z,21.91
2018-07-31T02:11:15.450Z,21.77
2018-07-31T02:12:15.476Z,21.78
2018-07-31T02:13:15.503Z,21.83
2018-07-31T02:14:15.528Z,21.80
2018-07-31T02:15:15.542Z,21.80
2018-07-31T02:16:15.566Z,21.81
2018-07-31T02:17:15.633Z,21.74
2018-07-31T02:18:15.618Z,21.77
2018-07-31T02:19:15.647Z,21.75
2018-07-31T02:20:15.670Z,21.69
2018-07-31T02:21:15.695Z,21.68
2018-07-31T02:22:15.731Z,21.66
2018-07-31T02:23:15.749Z,21.62
2018-07-31T02:24:15.773Z,21.68
2018-07-31T02:25:15.799Z,21.63
2018-07-31T02:26:15.813Z,21.63
2018-07-31T02:27:15.842Z,21.63
2018-07-31T02:28:16.040Z,21.53
2018-07-31T02:29:15.892Z,21.51
2018-07-31T02:30:15.919Z,21.53
2018-07-31T02:31:15.945Z,21.54
2018-07-31T02:32:15.970Z,21.51
2018-07-31T02:33:15.996Z,21.50
2018-07-31T02:34:16.022Z,21.48
2018-07-31T02:35:16.048Z,21.48
2018-07-31T02:36:16.062Z,21.53
2018-07-31T02:37:16.086Z,21.41
2018-07-31T02:38:16.112Z,21.47
2018-07-31T02:39:16.138Z,21.44
2018-07-31T02:40:16.164Z,21.44
2018-07-31T02:41:16.190Z,21.48
2018-07-31T02:42:16.219Z,21.47
2018-07-31T02:43:16.243Z,21.38
2018-07-31T02:44:16.267Z,21.44
2018-07-31T02:45:16.294Z,21.35
2018-07-31T02:46:16.311Z,21.33
2018-07-31T02:47:16.334Z,21.37
2018-07-31T02:48:16.360Z,21.37
2018-07-31T02:49:16.386Z,21.33
2018-07-31T02:50:16.414Z,21.28
2018-07-31T02:51:16.438Z,21.28
2018-07-31T02:52:16.468Z,21.26
2018-07-31T02:53:16.491Z,21.25
2018-07-31T02:54:16.515Z,21.23
2018-07-31T02:55:16.531Z,21.19
2018-07-31T02:56:16.557Z,21.28
2018-07-31T02:57:16.580Z,21.25
2018-07-31T02:58:16.669Z,21.28
2018-07-31T02:59:16.632Z,21.20
2018-07-31T03:00:16.671Z,21.17
2018-07-31T03:01:16.683Z,21.14
2018-07-31T03:02:16.710Z,21.17
2018-07-31T03:03:16.725Z,21.14
2018-07-31T03:04:16.750Z,21.10
2018-07-31T03:05:16.776Z,21.10
2018-07-31T03:06:16.804Z,21.05
2018-07-31T03:07:16.828Z,21.03
2018-07-31T03:08:16.874Z,21.04
2018-07-31T03:09:16.879Z,21.07
2018-07-31T03:10:16.907Z,21.00
2018-07-31T03:11:16.935Z,21.03
2018-07-31T03:12:16.944Z,20.96
2018-07-31T03:13:16.971Z,21.04
2018-07-31T03:14:16.997Z,21.00
2018-07-31T03:15:17.022Z,21.00
2018-07-31T03:16:17.048Z,21.03
2018-07-31T03:17:17.075Z,20.93
2018-07-31T03:18:17.103Z,20.93
2018-07-31T03:19:17.125Z,20.93
2018-07-31T03:20:17.141Z,20.95
2018-07-31T03:21:17.168Z,21.01
2018-07-31T03:22:17.193Z,20.93
2018-07-31T03:23:17.219Z,20.88
2018-07-31T03:24:17.243Z,20.93
2018-07-31T03:25:17.269Z,20.93
2018-07-31T03:26:17.296Z,20.92
2018-07-31T03:27:17.309Z,20.90
2018-07-31T03:28:17.393Z,20.90
2018-07-31T03:29:17.360Z,20.92
2018-07-31T03:30:17.398Z,20.88
2018-07-31T03:31:17.412Z,20.90
2018-07-31T03:32:17.438Z,20.88
2018-07-31T03:33:17.463Z,20.82
2018-07-31T03:34:17.479Z,20.90
2018-07-31T03:35:17.504Z,20.92
2018-07-31T03:36:17.543Z,20.90
2018-07-31T03:37:17.556Z,20.93
2018-07-31T03:38:17.582Z,20.95
2018-07-31T03:39:17.607Z,21.00
2018-07-31T03:40:17.633Z,20.96
2018-07-31T03:41:17.659Z,21.03
2018-07-31T03:42:17.672Z,20.95
2018-07-31T03:43:17.698Z,20.96
2018-07-31T03:44:17.724Z,20.93
2018-07-31T03:45:17.750Z,21.01
2018-07-31T03:46:17.776Z,21.03
2018-07-31T03:47:17.801Z,21.05
2018-07-31T03:48:17.828Z,20.92
2018-07-31T03:49:17.853Z,21.04
2018-07-31T03:50:17.868Z,21.01
2018-07-31T03:51:17.895Z,21.01
2018-07-31T03:52:17.926Z,21.08
2018-07-31T03:53:17.947Z,21.01
2018-07-31T03:54:17.977Z,21.05
2018-07-31T03:55:17.997Z,21.07
2018-07-31T03:56:18.073Z,21.04
2018-07-31T03:57:18.037Z,21.04
2018-07-31T03:58:18.063Z,21.01
2018-07-31T03:59:18.087Z,21.04
2018-07-31T04:00:18.130Z,21.01
2018-07-31T04:01:18.139Z,21.05
2018-07-31T04:02:18.166Z,21.05
2018-07-31T04:03:18.191Z,21.11
2018-07-31T04:04:18.217Z,21.10
2018-07-31T04:05:18.235Z,21.07
2018-07-31T04:06:18.257Z,21.05
2018-07-31T04:07:18.284Z,21.08
2018-07-31T04:08:18.309Z,21.10
2018-07-31T04:09:18.335Z,21.05
2018-07-31T04:10:18.362Z,21.07
2018-07-31T04:11:18.388Z,21.07
2018-07-31T04:12:18.414Z,21.07
2018-07-31T04:13:18.427Z,21.08
2018-07-31T04:14:18.452Z,21.07
2018-07-31T04:15:18.478Z,21.08
2018-07-31T04:16:18.505Z,21.07
2018-07-31T04:17:18.532Z,21.04
2018-07-31T04:18:18.555Z,21.11
2018-07-31T04:19:18.582Z,21.17
2018-07-31T04:20:18.608Z,21.05
2018-07-31T04:21:18.634Z,21.13
2018-07-31T04:22:18.647Z,21.15
2018-07-31T04:23:18.674Z,21.19
2018-07-31T04:24:18.700Z,21.11
2018-07-31T04:25:18.727Z,21.11
2018-07-31T04:26:18.751Z,21.20
2018-07-31T04:27:18.780Z,21.22
2018-07-31T04:28:18.803Z,21.22
2018-07-31T04:29:18.830Z,21.23
2018-07-31T04:30:18.855Z,21.26
2018-07-31T04:31:18.869Z,21.15
2018-07-31T04:32:18.894Z,21.20
2018-07-31T04:33:18.935Z,21.19
2018-07-31T04:34:18.947Z,21.22
2018-07-31T04:35:18.973Z,21.25
2018-07-31T04:36:19.053Z,21.28
2018-07-31T04:37:19.025Z,21.29
2018-07-31T04:38:19.049Z,21.26
2018-07-31T04:39:19.064Z,21.30
2018-07-31T04:40:19.090Z,21.26
2018-07-31T04:41:19.122Z,21.28
2018-07-31T04:42:19.171Z,21.32
2018-07-31T04:43:19.171Z,21.35
2018-07-31T04:44:19.196Z,21.35
2018-07-31T04:45:19.220Z,21.32
2018-07-31T04:46:19.246Z,21.37
2018-07-31T04:47:19.271Z,21.32
2018-07-31T04:48:19.287Z,21.40
2018-07-31T04:49:19.312Z,21.44
2018-07-31T04:50:19.361Z,21.43
2018-07-31T04:51:19.363Z,21.44
2018-07-31T04:52:19.388Z,21.48
2018-07-31T04:53:19.415Z,21.50
2018-07-31T04:54:19.440Z,21.54
2018-07-31T04:55:19.479Z,21.45
2018-07-31T04:56:19.491Z,21.45
2018-07-31T04:57:19.518Z,21.51
2018-07-31T04:58:19.532Z,21.48
2018-07-31T04:59:19.557Z,21.62
2018-07-31T05:00:19.584Z,21.60
2018-07-31T05:01:19.608Z,21.65
2018-07-31T05:02:19.636Z,21.72
2018-07-31T05:03:19.661Z,21.63
2018-07-31T05:04:19.707Z,21.66
2018-07-31T05:05:19.715Z,21.77
2018-07-31T05:06:19.739Z,21.75
2018-07-31T05:07:19.766Z,21.78
2018-07-31T05:08:19.791Z,21.78
2018-07-31T05:09:19.817Z,21.80
2018-07-31T05:10:19.830Z,21.89
2018-07-31T05:11:19.858Z,21.88
2018-07-31T05:12:19.885Z,21.88
2018-07-31T05:13:19.908Z,21.91
2018-07-31T05:14:19.933Z,22.01
2018-07-31T05:15:19.960Z,21.94
2018-07-31T05:16:19.986Z,21.97
2018-07-31T05:17:20.011Z,22.03
2018-07-31T05:18:20.042Z,22.06
2018-07-31T05:19:20.064Z,22.06
2018-07-31T05:20:20.091Z,22.07
2018-07-31T05:21:20.115Z,22.12
2018-07-31T05:22:20.142Z,22.07
2018-07-31T05:23:20.156Z,22.10
2018-07-31T05:24:20.185Z,22.21
2018-07-31T05:25:20.258Z,22.26
2018-07-31T05:26:20.234Z,22.25
2018-07-31T05:27:20.262Z,22.23
2018-07-31T05:28:20.285Z,22.30
2018-07-31T05:29:20.311Z,22.33
2018-07-31T05:30:20.341Z,22.36
2018-07-31T05:31:20.363Z,22.41
2018-07-31T05:32:20.390Z,22.51
2018-07-31T05:33:20.454Z,22.41
2018-07-31T05:34:20.442Z,22.56
2018-07-31T05:35:20.467Z,22.61
2018-07-31T05:36:20.493Z,22.63
2018-07-31T05:37:20.519Z,22.59
2018-07-31T05:38:20.545Z,22.70
2018-07-31T05:39:20.558Z,22.62
2018-07-31T05:40:20.586Z,22.67
2018-07-31T05:41:20.609Z,22.77
2018-07-31T05:42:20.635Z,22.74
2018-07-31T05:43:20.663Z,22.78
2018-07-31T05:44:20.687Z,22.83
2018-07-31T05:45:20.713Z,22.91
2018-07-31T05:46:20.740Z,22.92
2018-07-31T05:47:20.766Z,22.93
2018-07-31T05:48:20.794Z,22.95
2018-07-31T05:49:20.816Z,22.98
2018-07-31T05:50:20.843Z,22.96
2018-07-31T05:51:20.869Z,22.98
2018-07-31T05:52:20.895Z,23.01
2018-07-31T05:53:20.934Z,22.99
2018-07-31T05:54:20.956Z,23.01
2018-07-31T05:55:20.973Z,23.17
2018-07-31T05:56:20.998Z,23.25
2018-07-31T05:57:21.061Z,23.21
2018-07-31T05:58:21.050Z,23.17
2018-07-31T05:59:21.076Z,23.25
2018-07-31T06:00:21.104Z,23.33
2018-07-31T06:01:21.130Z,23.29
2018-07-31T06:02:21.168Z,23.33
2018-07-31T06:03:21.180Z,23.42
2018-07-31T06:04:21.207Z,23.44
2018-07-31T06:05:21.232Z,23.55
2018-07-31T06:06:21.258Z,23.52
2018-07-31T06:07:21.284Z,23.56
2018-07-31T06:08:21.324Z,23.54
2018-07-31T06:09:21.349Z,23.67
2018-07-31T06:10:21.362Z,23.69
2018-07-31T06:11:21.421Z,23.81
2018-07-31T06:12:21.415Z,23.76
2018-07-31T06:13:21.440Z,23.84
2018-07-31T06:14:21.466Z,23.94
2018-07-31T06:15:21.496Z,23.96
2018-07-31T06:16:21.522Z,24.03
2018-07-31T06:17:21.544Z,24.11
2018-07-31T06:18:21.569Z,24.07
2018-07-31T06:19:21.595Z,24.18
2018-07-31T06:20:21.622Z,24.24
2018-07-31T06:21:21.650Z,24.28
2018-07-31T06:22:21.673Z,24.26
2018-07-31T06:23:21.700Z,24.46
2018-07-31T06:24:21.727Z,24.47
2018-07-31T06:25:21.756Z,24.48
2018-07-31T06:26:21.776Z,24.56
2018-07-31T06:27:21.802Z,24.74
2018-07-31T06:28:21.843Z,24.81
2018-07-31T06:29:21.856Z,24.84
2018-07-31T06:30:21.899Z,24.94
2018-07-31T06:31:21.921Z,25.01
2018-07-31T06:32:21.945Z,25.16
2018-07-31T06:33:21.972Z,25.24
2018-07-31T06:34:21.998Z,25.43
2018-07-31T06:35:22.029Z,25.55
2018-07-31T06:36:22.050Z,25.59
2018-07-31T06:37:22.077Z,25.78
2018-07-31T06:38:22.114Z,25.81
2018-07-31T06:39:22.139Z,26.06
2018-07-31T06:40:22.208Z,26.23
2018-07-31T06:41:22.194Z,26.49
2018-07-31T06:42:22.217Z,26.63
2018-07-31T06:43:22.267Z,26.97
2018-07-31T06:44:22.282Z,27.20
2018-07-31T06:45:22.308Z,27.40
2018-07-31T06:46:22.346Z,27.67
2018-07-31T06:47:22.375Z,27.81
2018-07-31T06:48:22.398Z,27.97
2018-07-31T06:49:22.508Z,28.25
2018-07-31T06:50:22.463Z,28.38
2018-07-31T06:51:22.488Z,28.62
2018-07-31T06:52:22.527Z,28.86
2018-07-31T06:53:22.552Z,29.07
2018-07-31T06:54:22.592Z,29.28
2018-07-31T06:55:22.617Z,29.40
2018-07-31T06:56:22.655Z,29.69
2018-07-31T06:57:22.681Z,29.71
2018-07-31T06:58:22.720Z,29.95
2018-07-31T06:59:22.752Z,30.18
2018-07-31T07:00:22.797Z,30.44
2018-07-31T07:01:22.810Z,30.43
2018-07-31T07:02:22.851Z,30.70
2018-07-31T07:03:22.876Z,30.86
2018-07-31T07:04:22.913Z,31.05
2018-07-31T07:05:22.954Z,31.17
2018-07-31T07:06:22.979Z,31.28
2018-07-31T07:07:23.015Z,31.45
2018-07-31T07:08:23.046Z,31.69
2018-07-31T07:09:23.093Z,31.82
2018-07-31T07:10:23.118Z,31.98
2018-07-31T07:11:23.146Z,32.07
2018-07-31T07:12:23.183Z,32.20
2018-07-31T07:13:23.221Z,32.31
2018-07-31T07:14:23.247Z,32.41
2018-07-31T07:15:23.333Z,32.48
2018-07-31T07:16:23.324Z,32.59
2018-07-31T07:17:23.352Z,32.81
2018-07-31T07:18:23.389Z,32.90
2018-07-31T07:19:23.427Z,32.86
2018-07-31T07:20:23.468Z,33.00
2018-07-31T07:21:23.498Z,33.08
2018-07-31T07:22:23.530Z,33.15
2018-07-31T07:23:23.569Z,33.23
2018-07-31T07:24:23.606Z,33.38
2018-07-31T07:25:23.634Z,33.42
2018-07-31T07:26:23.671Z,33.51
2018-07-31T07:27:23.710Z,33.54
2018-07-31T07:28:23.749Z,33.77
2018-07-31T07:29:23.800Z,33.85
2018-07-31T07:30:23.812Z,33.92
2018-07-31T07:31:23.852Z,34.00
2018-07-31T07:32:23.889Z,34.07
2018-07-31T07:33:23.928Z,34.22
2018-07-31T07:34:23.966Z,34.21
2018-07-31T07:35:24.005Z,34.31
2018-07-31T07:36:24.032Z,34.33
2018-07-31T07:37:24.069Z,34.47
2018-07-31T07:38:24.107Z,34.53
2018-07-31T07:39:24.146Z,34.62
2018-07-31T07:40:24.185Z,34.70
2018-07-31T07:41:24.222Z,34.73
2018-07-31T07:42:24.262Z,34.79
2018-07-31T07:43:24.300Z,34.81
2018-07-31T07:44:24.338Z,34.78
2018-07-31T07:45:24.364Z,34.83
2018-07-31T07:46:24.410Z,34.88
2018-07-31T07:47:24.441Z,34.94
2018-07-31T07:48:24.541Z,35.04
2018-07-31T07:49:24.546Z,35.16
2018-07-31T07:50:24.555Z,35.15
2018-07-31T07:51:24.595Z,35.26
2018-07-31T07:52:24.632Z,35.34
2018-07-31T07:53:24.672Z,35.39
2018-07-31T07:54:24.757Z,35.45
2018-07-31T07:55:24.749Z,35.50
2018-07-31T07:56:24.789Z,35.66
2018-07-31T07:57:24.826Z,35.72
2018-07-31T07:58:24.864Z,35.71
2018-07-31T07:59:24.904Z,35.74
2018-07-31T08:00:24.942Z,35.79
2018-07-31T08:01:24.979Z,35.91
2018-07-31T08:02:25.019Z,35.81
2018-07-31T08:03:25.057Z,35.94
2018-07-31T08:04:25.095Z,36.05
2018-07-31T08:05:25.134Z,36.01
2018-07-31T08:06:25.171Z,36.01
2018-07-31T08:07:25.212Z,36.06
2018-07-31T08:08:25.249Z,36.14
2018-07-31T08:09:25.298Z,36.20
2018-07-31T08:10:25.344Z,36.31
2018-07-31T08:11:25.375Z,36.22
2018-07-31T08:12:25.415Z,36.41
2018-07-31T08:13:25.465Z,36.36
2018-07-31T08:14:25.492Z,36.44
2018-07-31T08:15:25.529Z,36.44
2018-07-31T08:16:25.572Z,36.60
2018-07-31T08:17:25.607Z,36.63
2018-07-31T08:18:25.649Z,36.66
2018-07-31T08:19:25.696Z,36.69
2018-07-31T08:20:25.766Z,36.75
2018-07-31T08:21:25.773Z,36.73
2018-07-31T08:22:25.835Z,36.76
2018-07-31T08:23:25.884Z,36.80
2018-07-31T08:24:25.888Z,36.85
2018-07-31T08:25:25.940Z,36.82
2018-07-31T08:26:25.978Z,36.82
2018-07-31T08:27:26.022Z,36.89
2018-07-31T08:28:26.056Z,36.88
2018-07-31T08:29:26.093Z,36.75
2018-07-31T08:30:26.133Z,36.76
2018-07-31T08:31:26.183Z,36.78
2018-07-31T08:32:26.223Z,36.69
2018-07-31T08:33:26.298Z,36.73
2018-07-31T08:34:26.344Z,36.63
2018-07-31T08:35:26.337Z,36.50
2018-07-31T08:36:26.387Z,36.54
2018-07-31T08:37:26.425Z,36.48
2018-07-31T08:38:26.464Z,36.36
2018-07-31T08:39:26.502Z,36.25
2018-07-31T08:40:26.540Z,36.20
2018-07-31T08:41:26.640Z,36.16
2018-07-31T08:42:26.619Z,36.16
2018-07-31T08:43:26.718Z,35.98
2018-07-31T08:44:26.706Z,35.84
2018-07-31T08:45:26.745Z,35.84
2018-07-31T08:46:26.786Z,35.79
2018-07-31T08:47:26.826Z,35.76
2018-07-31T08:48:26.861Z,35.74
2018-07-31T08:49:26.900Z,35.72
2018-07-31T08:50:26.942Z,35.63
2018-07-31T08:51:26.977Z,35.68
2018-07-31T08:52:27.015Z,35.61
2018-07-31T08:53:27.065Z,35.47
2018-07-31T08:54:27.107Z,35.45
2018-07-31T08:55:27.142Z,35.49
2018-07-31T08:56:27.183Z,35.41
2018-07-31T08:57:27.222Z,35.34
2018-07-31T08:58:27.257Z,35.41
2018-07-31T08:59:27.298Z,35.41
2018-07-31T09:00:27.336Z,35.35
2018-07-31T09:01:27.372Z,35.38
2018-07-31T09:02:27.418Z,35.41
2018-07-31T09:03:27.449Z,35.25
2018-07-31T09:04:27.489Z,35.32
2018-07-31T09:05:27.527Z,35.27
2018-07-31T09:06:27.569Z,35.30
2018-07-31T09:07:27.603Z,35.30
2018-07-31T09:08:27.711Z,35.31
2018-07-31T09:09:27.682Z,35.31
2018-07-31T09:10:27.732Z,35.31
2018-07-31T09:11:27.771Z,35.25
2018-07-31T09:12:27.808Z,35.31
2018-07-31T09:13:27.847Z,35.39
2018-07-31T09:14:27.885Z,35.32
2018-07-31T09:15:27.924Z,35.35
2018-07-31T09:16:27.975Z,35.41
2018-07-31T09:17:28.039Z,35.34
2018-07-31T09:18:28.039Z,35.41
2018-07-31T09:19:28.090Z,35.44
2018-07-31T09:20:28.128Z,35.45
2018-07-31T09:21:28.166Z,35.47
2018-07-31T09:22:28.206Z,35.56
2018-07-31T09:23:28.244Z,35.54
2018-07-31T09:24:28.300Z,35.75
2018-07-31T09:25:28.321Z,35.71
2018-07-31T09:26:28.374Z,35.68
2018-07-31T09:27:28.411Z,35.78
2018-07-31T09:28:28.451Z,35.87
2018-07-31T09:29:28.487Z,35.79
2018-07-31T09:30:28.571Z,35.93
2018-07-31T09:31:28.564Z,35.93
2018-07-31T09:32:28.615Z,35.87
2018-07-31T09:33:28.653Z,35.84
2018-07-31T09:34:28.695Z,35.94
2018-07-31T09:35:28.730Z,35.96
2018-07-31T09:36:28.774Z,35.96
2018-07-31T09:37:28.807Z,35.91
2018-07-31T09:38:28.857Z,36.01
2018-07-31T09:39:28.896Z,35.97
2018-07-31T09:40:28.934Z,36.14
2018-07-31T09:41:28.973Z,36.11
2018-07-31T09:42:29.011Z,36.22
2018-07-31T09:43:29.051Z,36.20
2018-07-31T09:44:29.089Z,36.22
2018-07-31T09:45:29.153Z,36.22
2018-07-31T09:46:29.181Z,36.33
2018-07-31T09:47:29.216Z,36.33
2018-07-31T09:48:29.272Z,36.38
2018-07-31T09:49:29.293Z,36.45
2018-07-31T09:50:29.364Z,36.41
2018-07-31T09:51:29.383Z,36.48
2018-07-31T09:52:29.426Z,36.51
2018-07-31T09:53:29.460Z,36.50
2018-07-31T09:54:29.497Z,36.67
2018-07-31T09:55:29.549Z,36.70
2018-07-31T09:56:29.588Z,36.70
2018-07-31T09:57:29.625Z,36.73
2018-07-31T09:58:29.664Z,36.70
2018-07-31T09:59:29.703Z,36.80
2018-07-31T10:00:29.753Z,36.91
2018-07-31T10:01:29.792Z,36.97
2018-07-31T10:02:29.879Z,36.96
2018-07-31T10:03:29.869Z,37.00
2018-07-31T10:04:29.920Z,37.19
2018-07-31T10:05:29.958Z,37.23
2018-07-31T10:06:29.997Z,37.31
2018-07-31T10:07:30.035Z,37.41
2018-07-31T10:08:30.076Z,37.57
2018-07-31T10:09:30.128Z,37.66
2018-07-31T10:10:30.163Z,37.72
2018-07-31T10:11:30.203Z,37.80
2018-07-31T10:12:30.239Z,37.86
2018-07-31T10:13:30.290Z,37.90
2018-07-31T10:14:30.329Z,38.01
2018-07-31T10:15:30.383Z,37.95
2018-07-31T10:16:30.407Z,38.13
2018-07-31T10:17:30.457Z,38.22
2018-07-31T10:18:30.495Z,38.29
2018-07-31T10:19:30.534Z,38.47
2018-07-31T10:20:30.574Z,38.53
2018-07-31T10:21:30.623Z,38.68
2018-07-31T10:22:30.662Z,38.75
2018-07-31T10:23:30.701Z,39.01
2018-07-31T10:24:30.803Z,39.14
2018-07-31T10:25:30.791Z,39.27
2018-07-31T10:26:30.843Z,39.34
2018-07-31T10:27:30.890Z,39.59
2018-07-31T10:28:30.930Z,39.67
2018-07-31T10:29:30.971Z,39.73
2018-07-31T10:30:31.036Z,40.00
2018-07-31T10:31:31.058Z,40.14
2018-07-31T10:32:31.097Z,40.22
2018-07-31T10:33:31.148Z,40.34
2018-07-31T10:34:31.185Z,40.48
2018-07-31T10:35:31.236Z,40.58
2018-07-31T10:36:31.277Z,40.81
2018-07-31T10:37:31.381Z,40.85
2018-07-31T10:38:31.364Z,41.05
2018-07-31T10:39:31.415Z,41.30
2018-07-31T10:40:31.454Z,41.48
2018-07-31T10:41:31.505Z,41.65
2018-07-31T10:42:31.543Z,41.80
2018-07-31T10:43:31.609Z,41.96
2018-07-31T10:44:31.635Z,42.12
2018-07-31T10:45:31.686Z,42.25
2018-07-31T10:46:31.722Z,42.33
2018-07-31T10:47:31.773Z,42.39
2018-07-31T10:48:31.823Z,42.58
2018-07-31T10:49:31.862Z,42.63
2018-07-31T10:50:31.957Z,42.75
2018-07-31T10:51:31.951Z,42.86
2018-07-31T10:52:32.002Z,43.05
2018-07-31T10:53:32.053Z,43.31
2018-07-31T10:54:32.093Z,43.44
2018-07-31T10:55:32.144Z,43.50
2018-07-31T10:56:32.182Z,43.54
2018-07-31T10:57:32.231Z,43.68
2018-07-31T10:58:32.321Z,43.72
2018-07-31T10:59:32.329Z,43.92
2018-07-31T11:00:32.373Z,43.94
2018-07-31T11:01:32.424Z,44.00
2018-07-31T11:02:32.463Z,43.99
2018-07-31T11:03:32.514Z,43.99
2018-07-31T11:04:32.552Z,44.13
2018-07-31T11:05:32.603Z,44.28
2018-07-31T11:06:32.697Z,44.52
2018-07-31T11:07:32.691Z,44.67
2018-07-31T11:08:32.742Z,44.80
2018-07-31T11:09:32.793Z,44.83
2018-07-31T11:10:32.833Z,44.91
2018-07-31T11:11:32.884Z,44.98
2018-07-31T11:12:32.935Z,45.10
2018-07-31T11:13:32.986Z,45.16
2018-07-31T11:14:33.023Z,45.36
2018-07-31T11:15:33.077Z,45.30
2018-07-31T11:16:33.115Z,45.52
2018-07-31T11:17:33.165Z,45.33
2018-07-31T11:18:33.219Z,45.28
2018-07-31T11:19:33.253Z,45.45
2018-07-31T11:20:33.316Z,45.40
2018-07-31T11:21:33.355Z,45.30
2018-07-31T11:22:33.395Z,45.37
2018-07-31T11:23:33.445Z,45.30
2018-07-31T11:24:33.496Z,45.39
2018-07-31T11:25:33.534Z,45.56
2018-07-31T11:26:33.585Z,45.82
2018-07-31T11:27:33.652Z,45.76
2018-07-31T11:28:33.675Z,45.90
2018-07-31T11:29:33.731Z,45.90
2018-07-31T11:30:33.777Z,46.09
2018-07-31T11:31:33.815Z,46.21
2018-07-31T11:32:33.865Z,46.35
2018-07-31T11:33:33.916Z,46.34
2018-07-31T11:34:33.967Z,46.46
2018-07-31T11:35:34.006Z,46.42
2018-07-31T11:36:34.056Z,46.43
2018-07-31T11:37:34.108Z,46.53
2018-07-31T11:38:34.198Z,46.75
2018-07-31T11:39:34.197Z,46.84
2018-07-31T11:40:34.248Z,46.87
2018-07-31T11:41:34.299Z,46.92
2018-07-31T11:42:34.338Z,46.90
2018-07-31T11:43:34.389Z,46.84
2018-07-31T11:44:34.439Z,46.92
2018-07-31T11:45:34.491Z,46.88
2018-07-31T11:46:34.528Z,46.94
2018-07-31T11:47:34.579Z,46.99
2018-07-31T11:48:34.630Z,46.90
2018-07-31T11:49:34.694Z,46.82
2018-07-31T11:50:34.720Z,46.88
2018-07-31T11:51:34.773Z,46.87
2018-07-31T11:52:34.822Z,47.09
2018-07-31T11:53:34.875Z,47.18
2018-07-31T11:54:34.911Z,47.35
2018-07-31T11:55:34.961Z,47.33
2018-07-31T11:56:35.012Z,47.37
2018-07-31T11:57:35.064Z,47.54
2018-07-31T11:58:35.102Z,47.70
2018-07-31T11:59:35.153Z,47.85
2018-07-31T12:00:35.204Z,47.98
2018-07-31T12:01:35.255Z,48.10
2018-07-31T12:02:35.296Z,48.14
2018-07-31T12:03:35.344Z,48.30
2018-07-31T12:04:35.399Z,48.27
2018-07-31T12:05:35.446Z,48.39
2018-07-31T12:06:35.496Z,48.48
2018-07-31T12:07:35.536Z,48.34
2018-07-31T12:08:35.593Z,48.34
2018-07-31T12:09:35.638Z,48.44
2018-07-31T12:10:35.688Z,48.42
2018-07-31T12:11:35.759Z,48.33
2018-07-31T12:12:35.778Z,48.48
2018-07-31T12:13:35.843Z,48.36
2018-07-31T12:14:35.881Z,48.30
2018-07-31T12:15:35.932Z,48.14
2018-07-31T12:16:35.982Z,48.30
2018-07-31T12:17:36.033Z,48.33
2018-07-31T12:18:36.073Z,48.32
2018-07-31T12:19:36.123Z,48.33
2018-07-31T12:20:36.174Z,48.51
2018-07-31T12:21:36.224Z,48.51
2018-07-31T12:22:36.263Z,48.53
2018-07-31T12:23:36.313Z,48.63
2018-07-31T12:24:36.364Z,48.52
2018-07-31T12:25:36.414Z,48.48
2018-07-31T12:26:36.465Z,48.52
2018-07-31T12:27:36.530Z,48.57
2018-07-31T12:28:36.558Z,48.64
2018-07-31T12:29:36.607Z,48.52
2018-07-31T12:30:36.658Z,48.65
2018-07-31T12:31:36.710Z,48.63
2018-07-31T12:32:36.760Z,48.63
2018-07-31T12:33:36.797Z,48.68
2018-07-31T12:34:36.848Z,48.79
2018-07-31T12:35:36.900Z,48.76
2018-07-31T12:36:36.965Z,48.83
2018-07-31T12:37:37.002Z,48.91
2018-07-31T12:38:37.059Z,48.99
2018-07-31T12:39:37.092Z,48.91
2018-07-31T12:40:37.142Z,48.95
2018-07-31T12:41:37.194Z,49.06
2018-07-31T12:42:37.232Z,49.25
2018-07-31T12:43:37.283Z,49.14
2018-07-31T12:44:37.332Z,49.14
2018-07-31T12:45:37.383Z,49.14
2018-07-31T12:46:37.435Z,49.25
2018-07-31T12:47:37.486Z,49.26
2018-07-31T12:48:37.565Z,49.21
2018-07-31T12:49:37.576Z,49.25
2018-07-31T12:50:37.627Z,49.26
2018-07-31T12:51:37.676Z,49.14
2018-07-31T12:52:37.728Z,48.82